sensor_id;sensor_type;location;lat;lon;timestamp;pressure;altitude;pressure_sealevel;temperature;humidity
34961;BME280;30789;52.030;7.110;2023-08-24T00:00:22;101105.00;;;18.64;81.08
34961;BME280;30789;52.030;7.110;2023-08-24T00:02:50;101108.78;;;18.54;80.79
34961;BME280;30789;52.030;7.110;2023-08-24T00:05:20;101107.66;;;18.51;81.89
34961;BME280;30789;52.030;7.110;2023-08-24T00:07:47;101103.69;;;18.49;81.60
34961;BME280;30789;52.030;7.110;2023-08-24T00:10:14;101095.09;;;18.40;82.14
34961;BME280;30789;52.030;7.110;2023-08-24T00:12:41;101099.13;;;18.39;82.73
34961;BME280;30789;52.030;7.110;2023-08-24T00:15:08;101103.47;;;18.40;82.63
34961;BME280;30789;52.030;7.110;2023-08-24T00:17:35;101097.13;;;18.39;82.27
34961;BME280;30789;52.030;7.110;2023-08-24T00:20:05;101102.00;;;18.32;81.91
34961;BME280;30789;52.030;7.110;2023-08-24T00:22:36;101088.91;;;18.29;82.39
34961;BME280;30789;52.030;7.110;2023-08-24T00:25:03;101096.56;;;18.25;82.07
34961;BME280;30789;52.030;7.110;2023-08-24T00:27:30;101083.50;;;18.18;82.72
34961;BME280;30789;52.030;7.110;2023-08-24T00:29:56;101093.53;;;18.16;83.33
34961;BME280;30789;52.030;7.110;2023-08-24T00:32:23;101096.53;;;18.05;82.82
34961;BME280;30789;52.030;7.110;2023-08-24T00:34:49;101099.78;;;18.00;83.40
34961;BME280;30789;52.030;7.110;2023-08-24T00:37:17;101095.47;;;17.96;83.96
34961;BME280;30789;52.030;7.110;2023-08-24T00:39:44;101096.72;;;17.95;84.16
34961;BME280;30789;52.030;7.110;2023-08-24T00:42:10;101080.41;;;17.93;83.64
34961;BME280;30789;52.030;7.110;2023-08-24T00:44:40;101073.66;;;17.91;83.93
34961;BME280;30789;52.030;7.110;2023-08-24T00:47:07;101066.13;;;17.88;84.05
34961;BME280;30789;52.030;7.110;2023-08-24T00:49:34;101067.38;;;17.87;84.32
34961;BME280;30789;52.030;7.110;2023-08-24T00:52:01;101058.88;;;17.94;84.25
34961;BME280;30789;52.030;7.110;2023-08-24T00:54:29;101055.72;;;17.92;83.79
34961;BME280;30789;52.030;7.110;2023-08-24T00:56:56;101058.53;;;17.92;83.75
34961;BME280;30789;52.030;7.110;2023-08-24T00:59:22;101070.09;;;17.90;84.10
34961;BME280;30789;52.030;7.110;2023-08-24T01:01:50;101062.50;;;17.91;83.66
34961;BME280;30789;52.030;7.110;2023-08-24T01:04:17;101069.78;;;17.85;83.43
34961;BME280;30789;52.030;7.110;2023-08-24T01:06:44;101058.34;;;17.79;84.17
34961;BME280;30789;52.030;7.110;2023-08-24T01:09:10;101058.81;;;17.74;84.59
34961;BME280;30789;52.030;7.110;2023-08-24T01:11:45;101057.59;;;17.75;84.32
34961;BME280;30789;52.030;7.110;2023-08-24T01:14:21;101064.84;;;17.69;84.53
34961;BME280;30789;52.030;7.110;2023-08-24T01:16:51;101055.41;;;17.63;84.92
34961;BME280;30789;52.030;7.110;2023-08-24T01:19:33;101059.03;;;17.60;84.74
34961;BME280;30789;52.030;7.110;2023-08-24T01:22:02;101063.44;;;17.61;84.33
34961;BME280;30789;52.030;7.110;2023-08-24T01:24:38;101063.28;;;17.68;83.75
34961;BME280;30789;52.030;7.110;2023-08-24T01:27:08;101058.09;;;17.70;83.62
34961;BME280;30789;52.030;7.110;2023-08-24T01:29:37;101054.88;;;17.72;83.45
34961;BME280;30789;52.030;7.110;2023-08-24T01:32:05;101056.06;;;17.71;83.66
34961;BME280;30789;52.030;7.110;2023-08-24T01:34:36;101048.63;;;17.64;83.96
34961;BME280;30789;52.030;7.110;2023-08-24T01:37:03;101040.31;;;17.61;83.61
34961;BME280;30789;52.030;7.110;2023-08-24T01:39:35;101042.03;;;17.55;84.00
34961;BME280;30789;52.030;7.110;2023-08-24T01:42:05;101041.59;;;17.56;84.22
34961;BME280;30789;52.030;7.110;2023-08-24T01:44:37;101045.56;;;17.55;83.77
34961;BME280;30789;52.030;7.110;2023-08-24T01:47:07;101040.13;;;17.48;84.17
34961;BME280;30789;52.030;7.110;2023-08-24T01:49:37;101031.34;;;17.50;84.15
34961;BME280;30789;52.030;7.110;2023-08-24T01:52:04;101031.78;;;17.48;84.58
34961;BME280;30789;52.030;7.110;2023-08-24T01:54:31;101033.97;;;17.60;84.63
34961;BME280;30789;52.030;7.110;2023-08-24T01:56:57;101028.38;;;17.60;84.01
34961;BME280;30789;52.030;7.110;2023-08-24T01:59:24;101031.59;;;17.59;83.25
34961;BME280;30789;52.030;7.110;2023-08-24T02:01:52;101024.31;;;17.65;84.02
34961;BME280;30789;52.030;7.110;2023-08-24T02:04:18;101021.91;;;17.67;84.02
34961;BME280;30789;52.030;7.110;2023-08-24T02:06:45;101015.53;;;17.66;84.13
34961;BME280;30789;52.030;7.110;2023-08-24T02:09:11;101022.28;;;17.69;84.22
34961;BME280;30789;52.030;7.110;2023-08-24T02:11:38;101009.06;;;17.73;83.94
34961;BME280;30789;52.030;7.110;2023-08-24T02:14:04;101001.50;;;17.73;83.25
34961;BME280;30789;52.030;7.110;2023-08-24T02:16:31;101001.50;;;17.73;83.66
34961;BME280;30789;52.030;7.110;2023-08-24T02:18:59;101002.16;;;17.81;83.29
34961;BME280;30789;52.030;7.110;2023-08-24T02:21:26;100992.09;;;17.87;83.03
34961;BME280;30789;52.030;7.110;2023-08-24T02:23:52;100990.09;;;17.87;82.31
34961;BME280;30789;52.030;7.110;2023-08-24T02:26:19;100999.59;;;17.90;82.22
34961;BME280;30789;52.030;7.110;2023-08-24T02:28:46;100997.22;;;17.88;82.90
34961;BME280;30789;52.030;7.110;2023-08-24T02:31:13;101005.22;;;17.86;82.59
34961;BME280;30789;52.030;7.110;2023-08-24T02:33:40;101008.44;;;17.85;82.69
34961;BME280;30789;52.030;7.110;2023-08-24T02:36:09;101002.84;;;17.85;82.96
34961;BME280;30789;52.030;7.110;2023-08-24T02:38:35;101004.19;;;17.77;82.93
34961;BME280;30789;52.030;7.110;2023-08-24T02:41:02;100999.41;;;17.77;83.53
34961;BME280;30789;52.030;7.110;2023-08-24T02:43:30;101010.28;;;17.72;83.66
34961;BME280;30789;52.030;7.110;2023-08-24T02:46:00;101007.97;;;17.67;84.12
34961;BME280;30789;52.030;7.110;2023-08-24T02:48:28;101001.38;;;17.57;84.54
34961;BME280;30789;52.030;7.110;2023-08-24T02:50:57;101003.44;;;17.53;84.84
34961;BME280;30789;52.030;7.110;2023-08-24T02:53:24;100997.44;;;17.55;85.38
34961;BME280;30789;52.030;7.110;2023-08-24T02:55:52;100995.19;;;17.46;85.48
34961;BME280;30789;52.030;7.110;2023-08-24T02:58:18;101010.72;;;17.47;85.65
34961;BME280;30789;52.030;7.110;2023-08-24T03:00:45;101003.06;;;17.51;83.97
34961;BME280;30789;52.030;7.110;2023-08-24T03:03:12;101008.88;;;17.60;84.87
34961;BME280;30789;52.030;7.110;2023-08-24T03:05:39;101015.97;;;17.65;84.92
34961;BME280;30789;52.030;7.110;2023-08-24T03:08:06;101011.56;;;17.67;85.27
34961;BME280;30789;52.030;7.110;2023-08-24T03:10:36;101015.63;;;17.63;85.83
34961;BME280;30789;52.030;7.110;2023-08-24T03:13:02;101029.41;;;17.70;85.00
34961;BME280;30789;52.030;7.110;2023-08-24T03:15:29;101021.78;;;17.74;85.28
34961;BME280;30789;52.030;7.110;2023-08-24T03:17:56;101019.13;;;17.67;86.14
34961;BME280;30789;52.030;7.110;2023-08-24T03:20:22;101021.09;;;17.66;86.26
34961;BME280;30789;52.030;7.110;2023-08-24T03:22:49;101021.44;;;17.72;85.86
34961;BME280;30789;52.030;7.110;2023-08-24T03:25:16;101020.50;;;17.78;85.80
34961;BME280;30789;52.030;7.110;2023-08-24T03:27:44;101011.72;;;17.80;85.92
34961;BME280;30789;52.030;7.110;2023-08-24T03:30:11;101015.72;;;17.79;85.95
34961;BME280;30789;52.030;7.110;2023-08-24T03:32:39;101010.13;;;17.79;86.32
34961;BME280;30789;52.030;7.110;2023-08-24T03:35:07;101007.34;;;17.79;86.31
34961;BME280;30789;52.030;7.110;2023-08-24T03:37:33;101005.66;;;17.85;86.24
34961;BME280;30789;52.030;7.110;2023-08-24T03:40:00;101012.06;;;17.82;86.38
34961;BME280;30789;52.030;7.110;2023-08-24T03:42:28;101011.59;;;17.87;86.03
34961;BME280;30789;52.030;7.110;2023-08-24T03:44:56;101007.25;;;17.86;86.21
34961;BME280;30789;52.030;7.110;2023-08-24T03:47:22;101010.75;;;17.90;86.59
34961;BME280;30789;52.030;7.110;2023-08-24T03:49:49;101014.34;;;17.90;86.64
34961;BME280;30789;52.030;7.110;2023-08-24T03:52:15;101013.81;;;17.95;86.76
34961;BME280;30789;52.030;7.110;2023-08-24T03:54:42;101009.03;;;17.96;86.10
34961;BME280;30789;52.030;7.110;2023-08-24T03:57:09;101016.69;;;17.92;86.53
34961;BME280;30789;52.030;7.110;2023-08-24T03:59:35;101011.53;;;17.90;86.88
34961;BME280;30789;52.030;7.110;2023-08-24T04:02:03;100991.59;;;17.92;86.35
34961;BME280;30789;52.030;7.110;2023-08-24T04:04:30;100990.00;;;17.91;87.37
34961;BME280;30789;52.030;7.110;2023-08-24T04:06:56;100974.91;;;17.88;86.58
34961;BME280;30789;52.030;7.110;2023-08-24T04:09:23;100962.22;;;17.87;87.22
34961;BME280;30789;52.030;7.110;2023-08-24T04:11:50;100967.03;;;17.83;87.71
34961;BME280;30789;52.030;7.110;2023-08-24T04:14:16;100972.56;;;17.87;88.47
34961;BME280;30789;52.030;7.110;2023-08-24T04:16:43;100982.91;;;17.86;88.81
34961;BME280;30789;52.030;7.110;2023-08-24T04:19:11;100984.56;;;17.84;89.25
34961;BME280;30789;52.030;7.110;2023-08-24T04:21:37;100969.88;;;17.80;89.09
34961;BME280;30789;52.030;7.110;2023-08-24T04:24:04;100961.03;;;17.85;89.48
34961;BME280;30789;52.030;7.110;2023-08-24T04:26:31;100936.75;;;17.85;89.42
34961;BME280;30789;52.030;7.110;2023-08-24T04:28:57;100933.81;;;17.92;88.93
34961;BME280;30789;52.030;7.110;2023-08-24T04:31:24;100924.94;;;17.78;89.00
34961;BME280;30789;52.030;7.110;2023-08-24T04:33:50;100925.22;;;17.83;89.13
34961;BME280;30789;52.030;7.110;2023-08-24T04:36:18;100936.09;;;17.78;89.66
34961;BME280;30789;52.030;7.110;2023-08-24T04:38:45;100942.25;;;17.89;89.08
34961;BME280;30789;52.030;7.110;2023-08-24T04:41:14;100946.97;;;17.92;88.95
34961;BME280;30789;52.030;7.110;2023-08-24T04:43:41;100945.97;;;17.82;89.70
34961;BME280;30789;52.030;7.110;2023-08-24T04:46:08;100939.16;;;17.83;89.27
34961;BME280;30789;52.030;7.110;2023-08-24T04:48:37;100939.97;;;17.84;89.47
34961;BME280;30789;52.030;7.110;2023-08-24T04:51:07;100936.31;;;17.87;88.92
34961;BME280;30789;52.030;7.110;2023-08-24T04:53:37;100929.19;;;17.86;89.21
34961;BME280;30789;52.030;7.110;2023-08-24T04:56:07;100921.88;;;17.92;90.00
34961;BME280;30789;52.030;7.110;2023-08-24T04:58:36;100920.94;;;17.98;89.91
34961;BME280;30789;52.030;7.110;2023-08-24T05:01:08;100916.50;;;18.01;89.05
34961;BME280;30789;52.030;7.110;2023-08-24T05:03:35;100920.50;;;18.00;89.45
34961;BME280;30789;52.030;7.110;2023-08-24T05:06:02;100923.66;;;18.02;89.54
34961;BME280;30789;52.030;7.110;2023-08-24T05:08:28;100919.81;;;17.96;89.77
34961;BME280;30789;52.030;7.110;2023-08-24T05:10:56;100925.53;;;17.89;89.66
34961;BME280;30789;52.030;7.110;2023-08-24T05:13:26;100924.72;;;17.88;89.72
34961;BME280;30789;52.030;7.110;2023-08-24T05:15:55;100920.00;;;17.85;89.50
34961;BME280;30789;52.030;7.110;2023-08-24T05:18:22;100921.72;;;17.79;90.25
34961;BME280;30789;52.030;7.110;2023-08-24T05:20:52;100913.06;;;17.74;90.42
34961;BME280;30789;52.030;7.110;2023-08-24T05:23:21;100915.50;;;17.72;89.99
34961;BME280;30789;52.030;7.110;2023-08-24T05:25:47;100911.84;;;17.75;90.48
34961;BME280;30789;52.030;7.110;2023-08-24T05:28:15;100913.00;;;17.77;90.61
34961;BME280;30789;52.030;7.110;2023-08-24T05:30:45;100915.66;;;17.84;90.34
34961;BME280;30789;52.030;7.110;2023-08-24T05:33:11;100911.94;;;17.91;90.00
34961;BME280;30789;52.030;7.110;2023-08-24T05:35:39;100904.63;;;17.97;89.58
34961;BME280;30789;52.030;7.110;2023-08-24T05:38:06;100914.06;;;18.03;89.06
34961;BME280;30789;52.030;7.110;2023-08-24T05:40:37;100899.78;;;18.01;89.46
34961;BME280;30789;52.030;7.110;2023-08-24T05:43:04;100916.22;;;17.95;89.63
34961;BME280;30789;52.030;7.110;2023-08-24T05:45:32;100919.81;;;17.96;89.98
34961;BME280;30789;52.030;7.110;2023-08-24T05:47:58;100917.88;;;17.93;89.70
34961;BME280;30789;52.030;7.110;2023-08-24T05:50:25;100919.84;;;17.92;90.04
34961;BME280;30789;52.030;7.110;2023-08-24T05:52:51;100919.09;;;17.92;89.83
34961;BME280;30789;52.030;7.110;2023-08-24T05:55:18;100911.44;;;17.96;90.03
34961;BME280;30789;52.030;7.110;2023-08-24T05:57:45;100914.59;;;17.98;89.57
34961;BME280;30789;52.030;7.110;2023-08-24T06:00:13;100914.84;;;18.03;89.90
34961;BME280;30789;52.030;7.110;2023-08-24T06:02:41;100921.88;;;18.11;89.49
34961;BME280;30789;52.030;7.110;2023-08-24T06:05:08;100917.63;;;18.23;89.33
34961;BME280;30789;52.030;7.110;2023-08-24T06:07:35;100911.97;;;18.26;89.03
34961;BME280;30789;52.030;7.110;2023-08-24T06:10:01;100915.47;;;18.30;88.91
34961;BME280;30789;52.030;7.110;2023-08-24T06:12:28;100910.16;;;18.39;88.40
34961;BME280;30789;52.030;7.110;2023-08-24T06:14:55;100914.00;;;18.45;88.66
34961;BME280;30789;52.030;7.110;2023-08-24T06:17:21;100909.13;;;18.49;88.26
34961;BME280;30789;52.030;7.110;2023-08-24T06:19:49;100910.88;;;18.59;87.98
34961;BME280;30789;52.030;7.110;2023-08-24T06:22:16;100910.22;;;18.72;87.35
34961;BME280;30789;52.030;7.110;2023-08-24T06:24:42;100907.28;;;18.95;85.96
34961;BME280;30789;52.030;7.110;2023-08-24T06:27:09;100907.50;;;19.16;85.50
34961;BME280;30789;52.030;7.110;2023-08-24T06:29:35;100902.09;;;19.25;84.76
34961;BME280;30789;52.030;7.110;2023-08-24T06:32:02;100907.78;;;19.38;83.88
34961;BME280;30789;52.030;7.110;2023-08-24T06:34:29;100891.56;;;19.33;85.21
34961;BME280;30789;52.030;7.110;2023-08-24T06:37:00;100901.41;;;19.37;85.57
34961;BME280;30789;52.030;7.110;2023-08-24T06:39:28;100902.09;;;19.41;85.18
34961;BME280;30789;52.030;7.110;2023-08-24T06:41:55;100891.06;;;19.50;85.25
34961;BME280;30789;52.030;7.110;2023-08-24T06:44:21;100889.44;;;19.53;85.75
34961;BME280;30789;52.030;7.110;2023-08-24T06:46:48;100885.75;;;19.56;84.97
34961;BME280;30789;52.030;7.110;2023-08-24T06:49:14;100880.03;;;19.59;84.74
34961;BME280;30789;52.030;7.110;2023-08-24T06:51:40;100876.72;;;19.64;83.94
34961;BME280;30789;52.030;7.110;2023-08-24T06:54:09;100874.94;;;19.70;85.00
34961;BME280;30789;52.030;7.110;2023-08-24T06:56:35;100868.22;;;19.68;84.58
34961;BME280;30789;52.030;7.110;2023-08-24T06:59:02;100876.50;;;19.71;85.43
34961;BME280;30789;52.030;7.110;2023-08-24T07:01:28;100864.34;;;19.78;85.35
34961;BME280;30789;52.030;7.110;2023-08-24T07:03:57;100857.66;;;19.88;84.98
34961;BME280;30789;52.030;7.110;2023-08-24T07:06:23;100856.34;;;19.92;84.81
34961;BME280;30789;52.030;7.110;2023-08-24T07:08:50;100858.03;;;20.02;83.73
34961;BME280;30789;52.030;7.110;2023-08-24T07:11:17;100858.38;;;20.04;83.66
34961;BME280;30789;52.030;7.110;2023-08-24T07:13:45;100847.41;;;20.10;83.62
34961;BME280;30789;52.030;7.110;2023-08-24T07:16:13;100841.41;;;20.24;81.73
34961;BME280;30789;52.030;7.110;2023-08-24T07:18:40;100837.97;;;20.33;81.44
34961;BME280;30789;52.030;7.110;2023-08-24T07:21:06;100835.72;;;20.40;81.48
34961;BME280;30789;52.030;7.110;2023-08-24T07:23:33;100842.09;;;20.53;79.50
34961;BME280;30789;52.030;7.110;2023-08-24T07:25:59;100860.91;;;20.65;78.16
34961;BME280;30789;52.030;7.110;2023-08-24T07:28:27;100860.25;;;20.86;76.03
34961;BME280;30789;52.030;7.110;2023-08-24T07:30:54;100850.59;;;20.87;74.83
34961;BME280;30789;52.030;7.110;2023-08-24T07:33:21;100852.03;;;20.92;75.39
34961;BME280;30789;52.030;7.110;2023-08-24T07:35:47;100848.31;;;20.95;74.64
34961;BME280;30789;52.030;7.110;2023-08-24T07:38:14;100843.75;;;21.01;75.55
34961;BME280;30789;52.030;7.110;2023-08-24T07:40:40;100849.22;;;21.17;73.67
34961;BME280;30789;52.030;7.110;2023-08-24T07:43:07;100848.31;;;21.20;74.52
34961;BME280;30789;52.030;7.110;2023-08-24T07:45:35;100848.63;;;21.22;74.34
34961;BME280;30789;52.030;7.110;2023-08-24T07:48:02;100852.41;;;21.28;74.71
34961;BME280;30789;52.030;7.110;2023-08-24T07:50:28;100849.25;;;21.38;72.27
34961;BME280;30789;52.030;7.110;2023-08-24T07:52:56;100846.53;;;21.69;70.15
34961;BME280;30789;52.030;7.110;2023-08-24T07:55:22;100854.97;;;21.69;71.39
34961;BME280;30789;52.030;7.110;2023-08-24T07:57:49;100847.59;;;21.62;70.50
34961;BME280;30789;52.030;7.110;2023-08-24T08:00:15;100845.28;;;21.70;70.81
34961;BME280;30789;52.030;7.110;2023-08-24T08:02:46;100835.09;;;21.76;71.54
34961;BME280;30789;52.030;7.110;2023-08-24T08:05:15;100839.72;;;21.91;71.02
34961;BME280;30789;52.030;7.110;2023-08-24T08:07:42;100841.66;;;22.04;70.00
34961;BME280;30789;52.030;7.110;2023-08-24T08:10:09;100847.53;;;22.18;68.29
34961;BME280;30789;52.030;7.110;2023-08-24T08:12:37;100842.53;;;22.22;67.78
34961;BME280;30789;52.030;7.110;2023-08-24T08:15:04;100842.66;;;22.19;67.77
34961;BME280;30789;52.030;7.110;2023-08-24T08:17:31;100838.69;;;22.29;67.27
34961;BME280;30789;52.030;7.110;2023-08-24T08:20:00;100845.25;;;22.35;68.85
34961;BME280;30789;52.030;7.110;2023-08-24T08:22:27;100841.69;;;22.43;68.41
34961;BME280;30789;52.030;7.110;2023-08-24T08:24:54;100836.03;;;22.65;66.90
34961;BME280;30789;52.030;7.110;2023-08-24T08:27:21;100838.38;;;22.66;65.74
34961;BME280;30789;52.030;7.110;2023-08-24T08:29:48;100828.94;;;22.91;64.05
34961;BME280;30789;52.030;7.110;2023-08-24T08:32:15;100834.41;;;22.94;63.73
34961;BME280;30789;52.030;7.110;2023-08-24T08:34:41;100833.13;;;22.86;63.41
34961;BME280;30789;52.030;7.110;2023-08-24T08:37:09;100824.59;;;23.08;62.42
34961;BME280;30789;52.030;7.110;2023-08-24T08:39:36;100819.28;;;23.01;61.92
34961;BME280;30789;52.030;7.110;2023-08-24T08:42:03;100824.59;;;23.17;63.18
34961;BME280;30789;52.030;7.110;2023-08-24T08:44:30;100826.81;;;23.31;62.54
34961;BME280;30789;52.030;7.110;2023-08-24T08:46:57;100823.69;;;23.38;62.95
34961;BME280;30789;52.030;7.110;2023-08-24T08:49:24;100827.91;;;23.61;62.73
34961;BME280;30789;52.030;7.110;2023-08-24T08:51:51;100821.00;;;23.80;61.53
34961;BME280;30789;52.030;7.110;2023-08-24T08:54:20;100822.25;;;23.97;61.92
34961;BME280;30789;52.030;7.110;2023-08-24T08:56:50;100826.28;;;24.14;60.37
34961;BME280;30789;52.030;7.110;2023-08-24T08:59:17;100815.56;;;24.27;61.61
34961;BME280;30789;52.030;7.110;2023-08-24T09:01:45;100820.81;;;24.52;60.89
34961;BME280;30789;52.030;7.110;2023-08-24T09:04:12;100822.66;;;24.55;59.10
34961;BME280;30789;52.030;7.110;2023-08-24T09:06:39;100817.50;;;24.53;55.25
34961;BME280;30789;52.030;7.110;2023-08-24T09:09:07;100819.50;;;24.71;55.40
34961;BME280;30789;52.030;7.110;2023-08-24T09:11:35;100819.03;;;24.72;56.55
34961;BME280;30789;52.030;7.110;2023-08-24T09:14:04;100815.47;;;24.86;57.69
34961;BME280;30789;52.030;7.110;2023-08-24T09:16:30;100808.84;;;24.98;56.75
34961;BME280;30789;52.030;7.110;2023-08-24T09:18:58;100813.78;;;25.03;56.01
34961;BME280;30789;52.030;7.110;2023-08-24T09:21:25;100803.31;;;25.04;53.89
34961;BME280;30789;52.030;7.110;2023-08-24T09:23:54;100792.84;;;25.19;55.25
34961;BME280;30789;52.030;7.110;2023-08-24T09:26:27;100791.69;;;25.49;56.76
34961;BME280;30789;52.030;7.110;2023-08-24T09:28:56;100785.56;;;25.51;55.03
34961;BME280;30789;52.030;7.110;2023-08-24T09:31:23;100779.53;;;25.72;55.00
34961;BME280;30789;52.030;7.110;2023-08-24T09:33:48;100775.41;;;25.59;53.71
34961;BME280;30789;52.030;7.110;2023-08-24T09:36:15;100754.69;;;25.62;54.28
34961;BME280;30789;52.030;7.110;2023-08-24T09:38:46;100752.78;;;25.68;53.69
34961;BME280;30789;52.030;7.110;2023-08-24T09:41:13;100739.22;;;25.86;54.24
34961;BME280;30789;52.030;7.110;2023-08-24T09:43:40;100743.13;;;26.03;55.18
34961;BME280;30789;52.030;7.110;2023-08-24T09:46:08;100740.34;;;26.23;54.38
34961;BME280;30789;52.030;7.110;2023-08-24T09:48:34;100727.50;;;26.22;53.13
34961;BME280;30789;52.030;7.110;2023-08-24T09:51:04;100718.72;;;26.35;53.02
34961;BME280;30789;52.030;7.110;2023-08-24T09:53:33;100713.53;;;26.68;51.17
34961;BME280;30789;52.030;7.110;2023-08-24T09:56:02;100712.47;;;26.65;52.85
34961;BME280;30789;52.030;7.110;2023-08-24T09:58:31;100702.38;;;26.79;52.97
34961;BME280;30789;52.030;7.110;2023-08-24T10:00:58;100700.16;;;27.09;52.67
34961;BME280;30789;52.030;7.110;2023-08-24T10:03:28;100696.03;;;27.30;50.79
34961;BME280;30789;52.030;7.110;2023-08-24T10:05:57;100707.44;;;27.66;50.18
34961;BME280;30789;52.030;7.110;2023-08-24T10:08:27;100713.06;;;28.23;48.13
34961;BME280;30789;52.030;7.110;2023-08-24T10:10:56;100713.59;;;29.50;44.56
34961;BME280;30789;52.030;7.110;2023-08-24T10:13:29;100706.78;;;30.85;42.83
34961;BME280;30789;52.030;7.110;2023-08-24T10:15:59;100698.06;;;31.94;40.73
34961;BME280;30789;52.030;7.110;2023-08-24T10:18:28;100690.94;;;32.06;40.22
34961;BME280;30789;52.030;7.110;2023-08-24T10:20:55;100684.88;;;31.56;38.94
34961;BME280;30789;52.030;7.110;2023-08-24T10:23:22;100685.97;;;31.83;39.22
34961;BME280;30789;52.030;7.110;2023-08-24T10:25:51;100697.34;;;32.42;39.41
34961;BME280;30789;52.030;7.110;2023-08-24T10:28:18;100697.53;;;32.92;38.00
34961;BME280;30789;52.030;7.110;2023-08-24T10:30:47;100698.09;;;32.42;39.41
34961;BME280;30789;52.030;7.110;2023-08-24T10:33:16;100686.63;;;30.67;41.55
34961;BME280;30789;52.030;7.110;2023-08-24T10:35:44;100679.81;;;29.90;43.29
34961;BME280;30789;52.030;7.110;2023-08-24T10:38:23;100682.13;;;30.09;44.73
34961;BME280;30789;52.030;7.110;2023-08-24T10:40:50;100673.50;;;31.10;42.54
34961;BME280;30789;52.030;7.110;2023-08-24T10:43:17;100680.13;;;31.34;39.80
34961;BME280;30789;52.030;7.110;2023-08-24T10:45:57;100678.69;;;30.49;41.15
34961;BME280;30789;52.030;7.110;2023-08-24T10:48:24;100685.75;;;30.09;43.65
34961;BME280;30789;52.030;7.110;2023-08-24T10:51:18;100694.28;;;29.87;42.07
34961;BME280;30789;52.030;7.110;2023-08-24T10:53:46;100690.34;;;29.29;44.45
34961;BME280;30789;52.030;7.110;2023-08-24T10:56:14;100670.34;;;28.37;45.76
34961;BME280;30789;52.030;7.110;2023-08-24T10:58:41;100661.00;;;28.20;48.63
34961;BME280;30789;52.030;7.110;2023-08-24T11:01:14;100661.88;;;28.01;48.71
34961;BME280;30789;52.030;7.110;2023-08-24T11:03:41;100651.25;;;28.91;47.38
34961;BME280;30789;52.030;7.110;2023-08-24T11:06:20;100635.91;;;29.86;44.56
34961;BME280;30789;52.030;7.110;2023-08-24T11:08:47;100635.91;;;29.86;43.70
34961;BME280;30789;52.030;7.110;2023-08-24T11:11:20;100623.00;;;29.35;43.69
34961;BME280;30789;52.030;7.110;2023-08-24T11:14:14;100616.78;;;29.53;44.57
34961;BME280;30789;52.030;7.110;2023-08-24T11:16:42;100613.94;;;29.31;45.78
34961;BME280;30789;52.030;7.110;2023-08-24T11:19:10;100613.63;;;28.91;46.27
34961;BME280;30789;52.030;7.110;2023-08-24T11:21:40;100613.16;;;29.09;45.21
34961;BME280;30789;52.030;7.110;2023-08-24T11:24:08;100613.00;;;28.59;45.84
34961;BME280;30789;52.030;7.110;2023-08-24T11:26:39;100621.56;;;28.22;47.46
34961;BME280;30789;52.030;7.110;2023-08-24T11:29:06;100623.16;;;28.34;47.21
34961;BME280;30789;52.030;7.110;2023-08-24T11:31:33;100611.53;;;28.27;47.14
34961;BME280;30789;52.030;7.110;2023-08-24T11:34:00;100606.13;;;28.23;49.29
34961;BME280;30789;52.030;7.110;2023-08-24T11:36:26;100609.72;;;28.24;48.54
34961;BME280;30789;52.030;7.110;2023-08-24T11:38:57;100598.66;;;27.84;48.97
34961;BME280;30789;52.030;7.110;2023-08-24T11:41:24;100600.34;;;27.65;49.37
34961;BME280;30789;52.030;7.110;2023-08-24T11:43:58;100594.06;;;27.50;49.47
34961;BME280;30789;52.030;7.110;2023-08-24T11:46:28;100602.06;;;27.57;52.36
34961;BME280;30789;52.030;7.110;2023-08-24T11:48:55;100602.06;;;27.57;51.20
34961;BME280;30789;52.030;7.110;2023-08-24T11:51:21;100607.31;;;27.38;50.10
34961;BME280;30789;52.030;7.110;2023-08-24T11:53:48;100608.50;;;27.26;49.94
34961;BME280;30789;52.030;7.110;2023-08-24T11:56:17;100616.56;;;27.33;50.55
34961;BME280;30789;52.030;7.110;2023-08-24T11:58:47;100616.06;;;27.35;49.66
34961;BME280;30789;52.030;7.110;2023-08-24T12:01:14;100617.88;;;27.38;51.07
34961;BME280;30789;52.030;7.110;2023-08-24T12:03:41;100616.31;;;27.68;51.08
34961;BME280;30789;52.030;7.110;2023-08-24T12:06:12;100613.88;;;27.86;50.78
34961;BME280;30789;52.030;7.110;2023-08-24T12:08:40;100628.81;;;28.29;50.32
34961;BME280;30789;52.030;7.110;2023-08-24T12:11:11;100632.50;;;28.41;50.16
34961;BME280;30789;52.030;7.110;2023-08-24T12:13:44;100643.00;;;28.34;48.58
34961;BME280;30789;52.030;7.110;2023-08-24T12:16:12;100648.38;;;28.21;50.40
34961;BME280;30789;52.030;7.110;2023-08-24T12:18:50;100633.97;;;28.25;50.81
34961;BME280;30789;52.030;7.110;2023-08-24T12:21:17;100628.09;;;28.34;50.08
34961;BME280;30789;52.030;7.110;2023-08-24T12:23:55;100625.97;;;28.23;50.44
34961;BME280;30789;52.030;7.110;2023-08-24T12:26:21;100613.91;;;28.39;50.71
34961;BME280;30789;52.030;7.110;2023-08-24T12:28:53;100605.38;;;28.28;51.50
34961;BME280;30789;52.030;7.110;2023-08-24T12:31:19;100591.91;;;28.12;51.88
34961;BME280;30789;52.030;7.110;2023-08-24T12:33:58;100573.34;;;27.75;52.54
34961;BME280;30789;52.030;7.110;2023-08-24T12:36:25;100561.91;;;27.89;51.51
34961;BME280;30789;52.030;7.110;2023-08-24T12:38:51;100566.41;;;28.18;52.53
34961;BME280;30789;52.030;7.110;2023-08-24T12:41:18;100559.00;;;28.31;51.10
34961;BME280;30789;52.030;7.110;2023-08-24T12:43:44;100557.84;;;28.07;52.27
34961;BME280;30789;52.030;7.110;2023-08-24T12:46:12;100552.81;;;28.27;51.07
34961;BME280;30789;52.030;7.110;2023-08-24T12:48:39;100559.16;;;28.81;50.97
34961;BME280;30789;52.030;7.110;2023-08-24T12:51:05;100554.00;;;28.74;50.20
34961;BME280;30789;52.030;7.110;2023-08-24T12:53:32;100542.47;;;29.27;47.95